sensor_id;sensor_type;location;lat;lon;timestamp;pressure;altitude;pressure_sealevel;temperature;humidity
60170;BME280;46042;49.444;6.862;2024-01-30T00:02:02;99947.16;;;2.24;100.00
60170;BME280;46042;49.444;6.862;2024-01-30T00:04:29;99949.81;;;2.21;100.00
60170;BME280;46042;49.444;6.862;2024-01-30T00:06:56;99954.13;;;2.21;100.00
60170;BME280;46042;49.444;6.862;2024-01-30T00:09:23;99946.38;;;2.18;100.00
60170;BME280;46042;49.444;6.862;2024-01-30T00:11:50;99944.69;;;2.12;100.00
60170;BME280;46042;49.444;6.862;2024-01-30T00:14:17;99953.44;;;2.06;100.00
60170;BME280;46042;49.444;6.862;2024-01-30T00:16:44;99951.78;;;1.94;100.00
60170;BME280;46042;49.444;6.862;2024-01-30T00:19:11;99945.72;;;1.97;100.00
60170;BME280;46042;49.444;6.862;2024-01-30T00:21:38;99950.03;;;1.98;100.00
60170;BME280;46042;49.444;6.862;2024-01-30T00:24:05;99946.56;;;1.99;100.00
60170;BME280;46042;49.444;6.862;2024-01-30T00:26:32;99951.75;;;1.99;100.00
60170;BME280;46042;49.444;6.862;2024-01-30T00:28:59;99944.03;;;1.93;100.00
60170;BME280;46042;49.444;6.862;2024-01-30T00:31:26;99958.69;;;1.98;100.00
60170;BME280;46042;49.444;6.862;2024-01-30T00:33:53;99950.91;;;1.95;100.00
60170;BME280;46042;49.444;6.862;2024-01-30T00:36:22;99950.91;;;1.95;100.00
60170;BME280;46042;49.444;6.862;2024-01-30T00:38:49;99946.63;;;1.91;100.00
60170;BME280;46042;49.444;6.862;2024-01-30T00:41:17;99945.75;;;1.92;100.00
60170;BME280;46042;49.444;6.862;2024-01-30T00:43:44;99947.53;;;1.89;100.00
60170;BME280;46042;49.444;6.862;2024-01-30T00:46:11;99947.50;;;1.92;100.00
60170;BME280;46042;49.444;6.862;2024-01-30T00:48:37;99944.03;;;1.91;100.00
60170;BME280;46042;49.444;6.862;2024-01-30T00:51:04;99951.06;;;1.77;100.00
60170;BME280;46042;49.444;6.862;2024-01-30T00:53:31;99945.88;;;1.78;100.00
60170;BME280;46042;49.444;6.862;2024-01-30T00:55:58;99945.91;;;1.74;100.00
60170;BME280;46042;49.444;6.862;2024-01-30T00:58:24;99944.13;;;1.79;100.00
60170;BME280;46042;49.444;6.862;2024-01-30T01:00:51;99944.97;;;1.82;100.00
60170;BME280;46042;49.444;6.862;2024-01-30T01:03:18;99934.63;;;1.78;100.00
60170;BME280;46042;49.444;6.862;2024-01-30T01:05:45;99944.13;;;1.80;100.00
60170;BME280;46042;49.444;6.862;2024-01-30T01:08:11;99944.13;;;1.79;100.00
60170;BME280;46042;49.444;6.862;2024-01-30T01:10:38;99942.44;;;1.76;100.00
60170;BME280;46042;49.444;6.862;2024-01-30T01:13:05;99951.97;;;1.76;100.00
60170;BME280;46042;49.444;6.862;2024-01-30T01:15:32;99952.09;;;1.62;100.00
60170;BME280;46042;49.444;6.862;2024-01-30T01:17:58;99951.22;;;1.58;100.00
60170;BME280;46042;49.444;6.862;2024-01-30T01:20:25;99951.25;;;1.53;100.00
60170;BME280;46042;49.444;6.862;2024-01-30T01:22:52;99953.88;;;1.52;100.00
60170;BME280;46042;49.444;6.862;2024-01-30T01:25:19;99953.00;;;1.58;100.00
60170;BME280;46042;49.444;6.862;2024-01-30T01:27:46;99957.34;;;1.54;100.00
60170;BME280;46042;49.444;6.862;2024-01-30T01:30:18;99947.78;;;1.58;100.00
60170;BME280;46042;49.444;6.862;2024-01-30T01:32:49;99944.38;;;1.49;100.00
60170;BME280;46042;49.444;6.862;2024-01-30T01:35:24;99952.19;;;1.48;100.00
60170;BME280;46042;49.444;6.862;2024-01-30T01:37:54;99946.97;;;1.51;100.00
60170;BME280;46042;49.444;6.862;2024-01-30T01:40:26;99948.69;;;1.52;100.00
60170;BME280;46042;49.444;6.862;2024-01-30T01:42:55;99948.72;;;1.49;100.00
60170;BME280;46042;49.444;6.862;2024-01-30T01:45:22;99951.28;;;1.50;100.00
60170;BME280;46042;49.444;6.862;2024-01-30T01:47:52;99946.97;;;1.49;100.00
60170;BME280;46042;49.444;6.862;2024-01-30T01:50:20;99947.00;;;1.48;100.00
60170;BME280;46042;49.444;6.862;2024-01-30T01:52:50;99943.53;;;1.49;100.00
60170;BME280;46042;49.444;6.862;2024-01-30T01:55:20;99945.38;;;1.31;100.00
60170;BME280;46042;49.444;6.862;2024-01-30T01:57:53;99945.34;;;1.33;100.00
60170;BME280;46042;49.444;6.862;2024-01-30T02:00:20;99950.59;;;1.26;100.00
60170;BME280;46042;49.444;6.862;2024-01-30T02:02:47;99943.66;;;1.28;100.00
60170;BME280;46042;49.444;6.862;2024-01-30T02:05:15;99946.25;;;1.30;100.00
60170;BME280;46042;49.444;6.862;2024-01-30T02:07:43;99937.53;;;1.36;100.00
60170;BME280;46042;49.444;6.862;2024-01-30T02:10:10;99938.41;;;1.35;100.00
60170;BME280;46042;49.444;6.862;2024-01-30T02:12:37;99934.09;;;1.34;100.00
60170;BME280;46042;49.444;6.862;2024-01-30T02:15:05;99934.16;;;1.29;100.00
60170;BME280;46042;49.444;6.862;2024-01-30T02:17:33;99936.75;;;1.27;100.00
60170;BME280;46042;49.444;6.862;2024-01-30T02:20:00;99936.78;;;1.24;100.00
60170;BME280;46042;49.444;6.862;2024-01-30T02:22:27;99928.16;;;1.16;100.00
60170;BME280;46042;49.444;6.862;2024-01-30T02:24:54;99929.06;;;1.12;100.00
60170;BME280;46042;49.444;6.862;2024-01-30T02:27:21;99942.03;;;1.10;100.00
60170;BME280;46042;49.444;6.862;2024-01-30T02:29:47;99939.50;;;1.01;100.00
60170;BME280;46042;49.444;6.862;2024-01-30T02:32:14;99941.25;;;1.04;100.00
60170;BME280;46042;49.444;6.862;2024-01-30T02:34:41;99947.28;;;1.04;100.00
60170;BME280;46042;49.444;6.862;2024-01-30T02:37:08;99946.44;;;1.04;100.00
60170;BME280;46042;49.444;6.862;2024-01-30T02:39:34;99950.75;;;1.05;100.00
60170;BME280;46042;49.444;6.862;2024-01-30T02:42:01;99958.50;;;1.06;100.00
60170;BME280;46042;49.444;6.862;2024-01-30T02:44:28;99954.22;;;1.02;100.00
60170;BME280;46042;49.444;6.862;2024-01-30T02:46:54;99957.69;;;1.01;100.00
60170;BME280;46042;49.444;6.862;2024-01-30T02:49:21;99954.25;;;0.99;100.00
60170;BME280;46042;49.444;6.862;2024-01-30T02:51:48;99942.09;;;1.03;100.00
60170;BME280;46042;49.444;6.862;2024-01-30T02:54:15;99938.66;;;0.99;100.00
60170;BME280;46042;49.444;6.862;2024-01-30T02:56:42;99943.88;;;0.96;100.00
60170;BME280;46042;49.444;6.862;2024-01-30T02:59:09;99940.41;;;0.95;100.00
60170;BME280;46042;49.444;6.862;2024-01-30T03:01:43;99946.44;;;1.01;100.00
60170;BME280;46042;49.444;6.862;2024-01-30T03:04:11;99943.00;;;0.95;100.00
60170;BME280;46042;49.444;6.862;2024-01-30T03:06:38;99935.22;;;0.94;100.00
60170;BME280;46042;49.444;6.862;2024-01-30T03:09:05;99940.41;;;0.94;100.00
60170;BME280;46042;49.444;6.862;2024-01-30T03:11:31;99936.97;;;0.92;100.00
60170;BME280;46042;49.444;6.862;2024-01-30T03:13:58;99938.72;;;0.91;100.00
60170;BME280;46042;49.444;6.862;2024-01-30T03:16:25;99937.00;;;0.85;100.00
60170;BME280;46042;49.444;6.862;2024-01-30T03:18:51;99938.75;;;0.82;100.00
60170;BME280;46042;49.444;6.862;2024-01-30T03:21:18;99939.63;;;0.81;100.00
60170;BME280;46042;49.444;6.862;2024-01-30T03:23:45;99937.88;;;0.84;100.00
60170;BME280;46042;49.444;6.862;2024-01-30T03:26:12;99939.63;;;0.81;100.00
60170;BME280;46042;49.444;6.862;2024-01-30T03:28:41;99937.91;;;0.78;100.00
60170;BME280;46042;49.444;6.862;2024-01-30T03:31:07;99940.50;;;0.77;100.00
60170;BME280;46042;49.444;6.862;2024-01-30T03:33:34;99937.03;;;0.78;100.00
60170;BME280;46042;49.444;6.862;2024-01-30T03:36:04;99939.63;;;0.79;100.00
60170;BME280;46042;49.444;6.862;2024-01-30T03:38:31;99935.31;;;0.77;100.00
60170;BME280;46042;49.444;6.862;2024-01-30T03:40:59;99940.50;;;0.77;100.00
60170;BME280;46042;49.444;6.862;2024-01-30T03:43:26;99937.91;;;0.77;100.00
60170;BME280;46042;49.444;6.862;2024-01-30T03:45:53;99932.75;;;0.74;100.00
60170;BME280;46042;49.444;6.862;2024-01-30T03:48:21;99939.63;;;0.76;100.00
60170;BME280;46042;49.444;6.862;2024-01-30T03:50:47;99938.81;;;0.73;100.00
60170;BME280;46042;49.444;6.862;2024-01-30T03:53:14;99938.78;;;0.74;100.00
60170;BME280;46042;49.444;6.862;2024-01-30T03:55:41;99938.78;;;0.74;100.00
60170;BME280;46042;49.444;6.862;2024-01-30T03:58:08;99939.69;;;0.72;100.00
60170;BME280;46042;49.444;6.862;2024-01-30T04:00:35;99931.06;;;0.65;100.00
60170;BME280;46042;49.444;6.862;2024-01-30T04:03:02;99938.81;;;0.66;100.00
60170;BME280;46042;49.444;6.862;2024-01-30T04:05:29;99937.94;;;0.67;100.00
60170;BME280;46042;49.444;6.862;2024-01-30T04:07:56;99938.81;;;0.68;100.00
60170;BME280;46042;49.444;6.862;2024-01-30T04:10:23;99937.06;;;0.70;100.00
60170;BME280;46042;49.444;6.862;2024-01-30T04:12:51;99940.56;;;0.66;100.00
60170;BME280;46042;49.444;6.862;2024-01-30T04:15:18;99938.84;;;0.60;100.00
60170;BME280;46042;49.444;6.862;2024-01-30T04:17:45;99942.31;;;0.59;100.00
60170;BME280;46042;49.444;6.862;2024-01-30T04:20:15;99944.03;;;0.62;100.00
60170;BME280;46042;49.444;6.862;2024-01-30T04:22:45;99940.56;;;0.60;100.00
60170;BME280;46042;49.444;6.862;2024-01-30T04:25:15;99938.84;;;0.59;100.00
60170;BME280;46042;49.444;6.862;2024-01-30T04:27:42;99947.53;;;0.53;100.00
60170;BME280;46042;49.444;6.862;2024-01-30T04:30:09;99948.38;;;0.53;100.00
60170;BME280;46042;49.444;6.862;2024-01-30T04:32:36;99941.44;;;0.55;100.00
60170;BME280;46042;49.444;6.862;2024-01-30T04:35:03;99941.44;;;0.55;100.00
60170;BME280;46042;49.444;6.862;2024-01-30T04:37:36;99944.06;;;0.54;100.00
60170;BME280;46042;49.444;6.862;2024-01-30T04:40:03;99942.34;;;0.56;100.00
60170;BME280;46042;49.444;6.862;2024-01-30T04:42:32;99945.81;;;0.52;100.00
60170;BME280;46042;49.444;6.862;2024-01-30T04:44:58;99949.25;;;0.52;100.00
60170;BME280;46042;49.444;6.862;2024-01-30T04:47:25;99942.34;;;0.50;100.00
60170;BME280;46042;49.444;6.862;2024-01-30T04:49:52;99950.13;;;0.51;100.00
60170;BME280;46042;49.444;6.862;2024-01-30T04:52:19;99947.53;;;0.48;100.00
60170;BME280;46042;49.444;6.862;2024-01-30T04:54:45;99959.66;;;0.46;100.00
60170;BME280;46042;49.444;6.862;2024-01-30T04:57:12;99954.44;;;0.48;100.00
60170;BME280;46042;49.444;6.862;2024-01-30T04:59:39;99950.16;;;0.45;100.00
60170;BME280;46042;49.444;6.862;2024-01-30T05:02:06;99951.88;;;0.46;100.00
60170;BME280;46042;49.444;6.862;2024-01-30T05:04:33;99953.56;;;0.49;100.00
60170;BME280;46042;49.444;6.862;2024-01-30T05:07:00;99946.66;;;0.48;100.00
60170;BME280;46042;49.444;6.862;2024-01-30T05:09:27;99953.63;;;0.44;100.00
60170;BME280;46042;49.444;6.862;2024-01-30T05:11:54;99952.72;;;0.42;100.00
60170;BME280;46042;49.444;6.862;2024-01-30T05:14:21;99953.63;;;0.44;100.00
60170;BME280;46042;49.444;6.862;2024-01-30T05:16:48;99951.03;;;0.44;100.00
60170;BME280;46042;49.444;6.862;2024-01-30T05:19:14;99946.72;;;0.43;100.00
60170;BME280;46042;49.444;6.862;2024-01-30T05:21:41;99954.50;;;0.38;100.00
60170;BME280;46042;49.444;6.862;2024-01-30T05:24:08;99943.25;;;0.39;100.00
60170;BME280;46042;49.444;6.862;2024-01-30T05:26:36;99951.03;;;0.36;100.00
60170;BME280;46042;49.444;6.862;2024-01-30T05:29:03;99948.44;;;0.35;100.00
60170;BME280;46042;49.444;6.862;2024-01-30T05:31:30;99954.50;;;0.35;100.00
60170;BME280;46042;49.444;6.862;2024-01-30T05:33:57;99960.56;;;0.33;100.00
60170;BME280;46042;49.444;6.862;2024-01-30T05:36:24;99948.47;;;0.28;100.00
60170;BME280;46042;49.444;6.862;2024-01-30T05:38:51;99957.97;;;0.28;100.00
60170;BME280;46042;49.444;6.862;2024-01-30T05:41:17;99960.59;;;0.22;100.00
60170;BME280;46042;49.444;6.862;2024-01-30T05:43:44;99962.31;;;0.20;100.00
60170;BME280;46042;49.444;6.862;2024-01-30T05:46:11;99966.63;;;0.21;100.00
60170;BME280;46042;49.444;6.862;2024-01-30T05:48:37;99968.34;;;0.17;100.00
60170;BME280;46042;49.444;6.862;2024-01-30T05:51:04;99964.03;;;0.14;100.00
60170;BME280;46042;49.444;6.862;2024-01-30T05:53:31;99964.88;;;0.17;100.00
60170;BME280;46042;49.444;6.862;2024-01-30T05:55:58;99964.03;;;0.11;100.00
60170;BME280;46042;49.444;6.862;2024-01-30T05:58:25;99969.25;;;0.10;100.00
60170;BME280;46042;49.444;6.862;2024-01-30T06:00:53;99965.78;;;0.09;100.00
60170;BME280;46042;49.444;6.862;2024-01-30T06:03:20;99963.19;;;0.09;100.00
60170;BME280;46042;49.444;6.862;2024-01-30T06:05:47;99960.63;;;0.03;100.00
60170;BME280;46042;49.444;6.862;2024-01-30T06:08:13;99958.88;;;0.01;100.00
60170;BME280;46042;49.444;6.862;2024-01-30T06:10:40;99957.16;;;-0.01;100.00
60170;BME280;46042;49.444;6.862;2024-01-30T06:13:07;99962.34;;;0.01;100.00
60170;BME280;46042;49.444;6.862;2024-01-30T06:15:34;99960.59;;;0.05;100.00
60170;BME280;46042;49.444;6.862;2024-01-30T06:18:00;99966.66;;;0.02;100.00
60170;BME280;46042;49.444;6.862;2024-01-30T06:20:27;99962.34;;;0.07;100.00
60170;BME280;46042;49.444;6.862;2024-01-30T06:22:54;99959.75;;;0.09;100.00
60170;BME280;46042;49.444;6.862;2024-01-30T06:25:20;99956.28;;;0.05;100.00
60170;BME280;46042;49.444;6.862;2024-01-30T06:27:47;99957.13;;;0.10;100.00
60170;BME280;46042;49.444;6.862;2024-01-30T06:30:14;99950.22;;;0.14;100.00
60170;BME280;46042;49.444;6.862;2024-01-30T06:32:41;99956.28;;;0.16;100.00
60170;BME280;46042;49.444;6.862;2024-01-30T06:35:08;99952.81;;;0.19;100.00
60170;BME280;46042;49.444;6.862;2024-01-30T06:37:34;99952.81;;;0.16;100.00
60170;BME280;46042;49.444;6.862;2024-01-30T06:40:01;99945.03;;;0.12;100.00
60170;BME280;46042;49.444;6.862;2024-01-30T06:42:28;99948.47;;;0.14;100.00
60170;BME280;46042;49.444;6.862;2024-01-30T06:44:55;99961.44;;;0.16;100.00
60170;BME280;46042;49.444;6.862;2024-01-30T06:47:21;99970.09;;;0.13;100.00
60170;BME280;46042;49.444;6.862;2024-01-30T06:49:48;99966.66;;;0.10;100.00
60170;BME280;46042;49.444;6.862;2024-01-30T06:52:15;99963.19;;;0.08;100.00
60170;BME280;46042;49.444;6.862;2024-01-30T06:54:42;99959.75;;;0.07;100.00
60170;BME280;46042;49.444;6.862;2024-01-30T06:57:08;99968.34;;;0.12;100.00
60170;BME280;46042;49.444;6.862;2024-01-30T06:59:38;99970.09;;;0.13;100.00
60170;BME280;46042;49.444;6.862;2024-01-30T07:02:10;99968.38;;;0.14;100.00
60170;BME280;46042;49.444;6.862;2024-01-30T07:04:37;99968.38;;;0.14;100.00
60170;BME280;46042;49.444;6.862;2024-01-30T07:07:08;99970.06;;;0.17;100.00
60170;BME280;46042;49.444;6.862;2024-01-30T07:09:39;99972.69;;;0.20;100.00
60170;BME280;46042;49.444;6.862;2024-01-30T07:12:06;99970.94;;;0.22;100.00
60170;BME280;46042;49.444;6.862;2024-01-30T07:14:33;99970.09;;;0.23;100.00
60170;BME280;46042;49.444;6.862;2024-01-30T07:17:00;99977.88;;;0.20;100.00
60170;BME280;46042;49.444;6.862;2024-01-30T07:19:27;99976.97;;;0.27;100.00
60170;BME280;46042;49.444;6.862;2024-01-30T07:21:53;99974.38;;;0.25;100.00
60170;BME280;46042;49.444;6.862;2024-01-30T07:24:20;99978.72;;;0.25;100.00
60170;BME280;46042;49.444;6.862;2024-01-30T07:26:47;99990.78;;;0.32;100.00
60170;BME280;46042;49.444;6.862;2024-01-30T07:29:14;99986.44;;;0.34;100.00
60170;BME280;46042;49.444;6.862;2024-01-30T07:31:41;99987.34;;;0.36;100.00
60170;BME280;46042;49.444;6.862;2024-01-30T07:34:08;99989.03;;;0.39;100.00
60170;BME280;46042;49.444;6.862;2024-01-30T07:36:35;99990.78;;;0.32;100.00
60170;BME280;46042;49.444;6.862;2024-01-30T07:39:02;99984.72;;;0.38;100.00
60170;BME280;46042;49.444;6.862;2024-01-30T07:41:29;99979.53;;;0.38;100.00
60170;BME280;46042;49.444;6.862;2024-01-30T07:43:55;99988.16;;;0.40;100.00
60170;BME280;46042;49.444;6.862;2024-01-30T07:46:22;99988.16;;;0.40;100.00
60170;BME280;46042;49.444;6.862;2024-01-30T07:48:49;99996.81;;;0.40;100.00
60170;BME280;46042;49.444;6.862;2024-01-30T07:51:20;99998.56;;;0.43;100.00
60170;BME280;46042;49.444;6.862;2024-01-30T07:53:47;100000.25;;;0.46;100.00
60170;BME280;46042;49.444;6.862;2024-01-30T07:56:13;100008.03;;;0.49;100.00
60170;BME280;46042;49.444;6.862;2024-01-30T07:58:40;100011.47;;;0.51;100.00
60170;BME280;46042;49.444;6.862;2024-01-30T08:01:07;100019.28;;;0.54;100.00
60170;BME280;46042;49.444;6.862;2024-01-30T08:03:34;100020.97;;;0.61;100.00
60170;BME280;46042;49.444;6.862;2024-01-30T08:06:01;100014.91;;;0.57;100.00
60170;BME280;46042;49.444;6.862;2024-01-30T08:08:28;100005.38;;;0.64;100.00
60170;BME280;46042;49.444;6.862;2024-01-30T08:10:55;100015.75;;;0.74;100.00
60170;BME280;46042;49.444;6.862;2024-01-30T08:13:21;100012.25;;;0.81;100.00
60170;BME280;46042;49.444;6.862;2024-01-30T08:18:26;100010.47;;;0.94;100.00
60170;BME280;46042;49.444;6.862;2024-01-30T08:20:53;100018.25;;;0.95;100.00
60170;BME280;46042;49.444;6.862;2024-01-30T08:23:20;100019.94;;;1.04;100.00
60170;BME280;46042;49.444;6.862;2024-01-30T08:25:47;100012.16;;;1.04;100.00
60170;BME280;46042;49.444;6.862;2024-01-30T08:28:13;100016.50;;;1.04;100.00
60170;BME280;46042;49.444;6.862;2024-01-30T08:30:43;100009.56;;;1.01;100.00
60170;BME280;46042;49.444;6.862;2024-01-30T08:33:10;100012.13;;;1.07;100.00
60170;BME280;46042;49.444;6.862;2024-01-30T08:35:36;100011.25;;;1.13;100.00
60170;BME280;46042;49.444;6.862;2024-01-30T08:38:04;100003.41;;;1.21;100.00
60170;BME280;46042;49.444;6.862;2024-01-30T08:40:31;100001.69;;;1.24;100.00
60170;BME280;46042;49.444;6.862;2024-01-30T08:42:58;100013.75;;;1.28;100.00
60170;BME280;46042;49.444;6.862;2024-01-30T08:45:25;100022.38;;;1.34;100.00
60170;BME280;46042;49.444;6.862;2024-01-30T08:47:51;100029.31;;;1.38;100.00
60170;BME280;46042;49.444;6.862;2024-01-30T08:50:18;100022.34;;;1.43;100.00
60170;BME280;46042;49.444;6.862;2024-01-30T08:52:45;100018.84;;;1.49;100.00
60170;BME280;46042;49.444;6.862;2024-01-30T08:55:13;100032.63;;;1.59;100.00
60170;BME280;46042;49.444;6.862;2024-01-30T08:57:39;100039.50;;;1.66;100.00
60170;BME280;46042;49.444;6.862;2024-01-30T09:00:06;100026.47;;;1.70;100.00
60170;BME280;46042;49.444;6.862;2024-01-30T09:02:35;100024.66;;;1.79;100.00
60170;BME280;46042;49.444;6.862;2024-01-30T09:05:03;100017.78;;;1.76;100.00
60170;BME280;46042;49.444;6.862;2024-01-30T09:07:30;100028.16;;;1.81;100.00
60170;BME280;46042;49.444;6.862;2024-01-30T09:09:57;100018.53;;;1.89;100.00
60170;BME280;46042;49.444;6.862;2024-01-30T09:12:24;100019.34;;;1.94;100.00
60170;BME280;46042;49.444;6.862;2024-01-30T09:14:50;100019.28;;;2.02;100.00
60170;BME280;46042;49.444;6.862;2024-01-30T09:17:17;100028.75;;;2.14;100.00
60170;BME280;46042;49.444;6.862;2024-01-30T09:19:45;100019.97;;;2.24;100.00
60170;BME280;46042;49.444;6.862;2024-01-30T09:22:12;100032.94;;;2.29;100.00
60170;BME280;46042;49.444;6.862;2024-01-30T09:24:39;100030.22;;;2.40;100.00
60170;BME280;46042;49.444;6.862;2024-01-30T09:27:06;100033.66;;;2.42;100.00
60170;BME280;46042;49.444;6.862;2024-01-30T09:29:33;100033.63;;;2.47;100.00
60170;BME280;46042;49.444;6.862;2024-01-30T09:32:00;100033.50;;;2.58;100.00
60170;BME280;46042;49.444;6.862;2024-01-30T09:34:27;100033.47;;;2.61;100.00
60170;BME280;46042;49.444;6.862;2024-01-30T09:36:54;100046.44;;;2.67;100.00
60170;BME280;46042;49.444;6.862;2024-01-30T09:39:21;100052.41;;;2.74;100.00
60170;BME280;46042;49.444;6.862;2024-01-30T09:44:37;100055.72;;;2.88;100.00
60170;BME280;46042;49.444;6.862;2024-01-30T09:47:04;100053.03;;;2.97;100.00
60170;BME280;46042;49.444;6.862;2024-01-30T09:49:33;100061.59;;;3.06;100.00
60170;BME280;46042;49.444;6.862;2024-01-30T09:52:02;100056.28;;;3.13;100.00
60170;BME280;46042;49.444;6.862;2024-01-30T09:54:32;100052.75;;;3.19;100.00
60170;BME280;46042;49.444;6.862;2024-01-30T09:57:02;100052.66;;;3.29;100.00
60170;BME280;46042;49.444;6.862;2024-01-30T09:59:29;100054.22;;;3.39;100.00
60170;BME280;46042;49.444;6.862;2024-01-30T10:01:57;100052.38;;;3.47;100.00
60170;BME280;46042;49.444;6.862;2024-01-30T10:04:24;100051.41;;;3.56;100.00
60170;BME280;46042;49.444;6.862;2024-01-30T10:06:51;100060.72;;;3.73;100.00
60170;BME280;46042;49.444;6.862;2024-01-30T10:09:17;100056.03;;;3.95;100.00
60170;BME280;46042;49.444;6.862;2024-01-30T10:11:44;100053.00;;;4.21;100.00
60170;BME280;46042;49.444;6.862;2024-01-30T10:14:11;100058.81;;;4.37;100.00
60170;BME280;46042;49.444;6.862;2024-01-30T10:16:37;100070.06;;;4.39;100.00
60170;BME280;46042;49.444;6.862;2024-01-30T10:19:04;100066.56;;;4.40;100.00
60170;BME280;46042;49.444;6.862;2024-01-30T10:21:31;100064.75;;;4.46;100.00
60170;BME280;46042;49.444;6.862;2024-01-30T10:23:58;100062.84;;;4.55;100.00
60170;BME280;46042;49.444;6.862;2024-01-30T10:26:24;100062.72;;;4.62;100.00
60170;BME280;46042;49.444;6.862;2024-01-30T10:28:51;100058.94;;;4.77;100.00
60170;BME280;46042;49.444;6.862;2024-01-30T10:31:18;100050.88;;;4.91;100.00
60170;BME280;46042;49.444;6.862;2024-01-30T10:33:45;100050.50;;;5.08;100.00
60170;BME280;46042;49.444;6.862;2024-01-30T10:36:16;100045.13;;;5.16;100.00
60170;BME280;46042;49.444;6.862;2024-01-30T10:38:47;100056.88;;;5.37;100.00
60170;BME280;46042;49.444;6.862;2024-01-30T10:41:20;100053.34;;;5.77;100.00
60170;BME280;46042;49.444;6.862;2024-01-30T10:44:02;100048.44;;;6.03;100.00
60170;BME280;46042;49.444;6.862;2024-01-30T10:46:31;100042.91;;;6.15;100.00
60170;BME280;46042;49.444;6.862;2024-01-30T10:48:59;100050.41;;;6.29;100.00
60170;BME280;46042;49.444;6.862;2024-01-30T10:51:27;100044.03;;;6.39;100.00
60170;BME280;46042;49.444;6.862;2024-01-30T10:53:56;100061.47;;;6.39;100.00
60170;BME280;46042;49.444;6.862;2024-01-30T10:56:25;100055.34;;;6.40;100.00
60170;BME280;46042;49.444;6.862;2024-01-30T10:58:53;100054.78;;;6.29;100.00
60170;BME280;46042;49.444;6.862;2024-01-30T11:01:21;100045.91;;;6.34;100.00
60170;BME280;46042;49.444;6.862;2024-01-30T11:03:52;100053.50;;;6.45;100.00
60170;BME280;46042;49.444;6.862;2024-01-30T11:06:23;100041.84;;;6.55;100.00
60170;BME280;46042;49.444;6.862;2024-01-30T11:09:03;100041.66;;;6.63;100.00
60170;BME280;46042;49.444;6.862;2024-01-30T11:11:30;100040.63;;;6.69;100.00
60170;BME280;46042;49.444;6.862;2024-01-30T11:14:00;100036.91;;;6.78;100.00
60170;BME280;46042;49.444;6.862;2024-01-30T11:16:32;100040.34;;;6.80;100.00
60170;BME280;46042;49.444;6.862;2024-01-30T11:19:00;100059.56;;;6.79;100.00
60170;BME280;46042;49.444;6.862;2024-01-30T11:21:28;100052.63;;;6.78;100.00
60170;BME280;46042;49.444;6.862;2024-01-30T11:23:56;100044.94;;;6.72;100.00
60170;BME280;46042;49.444;6.862;2024-01-30T11:26:30;100039.44;;;6.81;100.00
60170;BME280;46042;49.444;6.862;2024-01-30T11:28:58;100042.72;;;6.89;100.00
60170;BME280;46042;49.444;6.862;2024-01-30T11:31:25;100043.41;;;6.96;100.00
60170;BME280;46042;49.444;6.862;2024-01-30T11:33:52;100033.50;;;7.06;100.00
60170;BME280;46042;49.444;6.862;2024-01-30T11:36:25;100034.13;;;7.14;100.00
60170;BME280;46042;49.444;6.862;2024-01-30T11:38:52;100028.66;;;7.22;100.00
60170;BME280;46042;49.444;6.862;2024-01-30T11:41:19;100033.69;;;7.30;100.00
60170;BME280;46042;49.444;6.862;2024-01-30T11:43:53;100035.03;;;7.43;100.00
60170;BME280;46042;49.444;6.862;2024-01-30T11:46:20;100032.06;;;7.54;100.00
60170;BME280;46042;49.444;6.862;2024-01-30T11:48:47;100027.25;;;7.68;100.00
60170;BME280;46042;49.444;6.862;2024-01-30T11:51:14;100020.66;;;7.83;100.00
60170;BME280;46042;49.444;6.862;2024-01-30T11:53:41;100015.22;;;7.90;100.00
60170;BME280;46042;49.444;6.862;2024-01-30T11:56:08;100018.97;;;8.08;100.00
60170;BME280;46042;49.444;6.862;2024-01-30T11:58:35;100022.41;;;8.10;100.00
60170;BME280;46042;49.444;6.862;2024-01-30T12:01:02;100001.16;;;8.18;100.00
60170;BME280;46042;49.444;6.862;2024-01-30T12:03:29;100001.81;;;8.24;100.00
60170;BME280;46042;49.444;6.862;2024-01-30T12:05:58;100009.56;;;8.28;100.00
60170;BME280;46042;49.444;6.862;2024-01-30T12:08:26;100001.66;;;8.29;100.00
60170;BME280;46042;49.444;6.862;2024-01-30T12:10:57;100007.16;;;8.21;100.00
60170;BME280;46042;49.444;6.862;2024-01-30T12:13:32;100004.50;;;8.23;100.00
60170;BME280;46042;49.444;6.862;2024-01-30T12:16:00;99994.97;;;8.20;100.00
60170;BME280;46042;49.444;6.862;2024-01-30T12:18:27;100004.28;;;8.29;100.00
60170;BME280;46042;49.444;6.862;2024-01-30T12:21:00;100000.84;;;8.27;99.78
60170;BME280;46042;49.444;6.862;2024-01-30T12:23:28;99997.06;;;8.36;100.00
60170;BME280;46042;49.444;6.862;2024-01-30T12:25:55;99994.00;;;8.48;100.00
60170;BME280;46042;49.444;6.862;2024-01-30T12:28:21;99993.25;;;8.45;98.50
60170;BME280;46042;49.444;6.862;2024-01-30T12:30:48;99983.47;;;8.50;100.00
60170;BME280;46042;49.444;6.862;2024-01-30T12:33:18;99976.19;;;8.58;100.00
60170;BME280;46042;49.444;6.862;2024-01-30T12:35:46;99980.50;;;8.59;100.00
60170;BME280;46042;49.444;6.862;2024-01-30T12:38:27;99982.34;;;8.57;100.00
60170;BME280;46042;49.444;6.862;2024-01-30T12:40:54;99983.13;;;8.59;100.00
60170;BME280;46042;49.444;6.862;2024-01-30T12:43:25;99980.56;;;8.58;99.36
60170;BME280;46042;49.444;6.862;2024-01-30T12:46:03;99980.66;;;8.54;100.00
60170;BME280;46042;49.444;6.862;2024-01-30T12:48:30;99972.03;;;8.51;100.00
60170;BME280;46042;49.444;6.862;2024-01-30T12:50:58;99969.41;;;8.51;100.00
60170;BME280;46042;49.444;6.862;2024-01-30T12:53:25;99982.78;;;8.43;100.00
60170;BME280;46042;49.444;6.862;2024-01-30T12:55:52;99975.94;;;8.39;100.00
60170;BME280;46042;49.444;6.862;2024-01-30T12:58:21;99975.97;;;8.37;100.00
60170;BME280;46042;49.444;6.862;2024-01-30T13:00:47;99973.34;;;8.37;100.00
60170;BME280;46042;49.444;6.862;2024-01-30T13:03:14;99962.00;;;8.37;100.00
60170;BME280;46042;49.444;6.862;2024-01-30T13:05:42;99968.94;;;8.39;100.00